Time;durP1;ratioP1;P1;durP2;ratioP2;P2;SDS_P1;SDS_P2;PMS_P1;PMS_P2;Temp;Humidity;BMP_temperature;BMP_pressure;BME280_temperature;BME280_humidity;BME280_pressure;Samples;Min_cycle;Max_cycle;Signal;HPM_P1;HPM_P2
2023/08/15 00:01:06;;;;;;;9.50;5.10;;;;;;;;;;7390919;19;20474;-73
2023/08/15 00:03:33;;;;;;;12.18;5.18;;;;;;;;;;7369625;19;20011;-73
2023/08/15 00:05:58;;;;;;;10.88;4.97;;;;;;;;;;7370416;19;20018;-73
2023/08/15 00:08:23;;;;;;;10.15;5.25;;;;;;;;;;7370536;19;20479;-73
2023/08/15 00:10:49;;;;;;;9.55;5.30;;;;;;;;;;7370913;19;20066;-73
2023/08/15 00:13:14;;;;;;;11.05;5.82;;;;;;;;;;7391762;19;20003;-73
2023/08/15 00:15:39;;;;;;;11.82;5.35;;;;;;;;;;7369539;19;20022;-73
2023/08/15 00:18:05;;;;;;;9.85;5.80;;;;;;;;;;7370440;19;20469;-73
2023/08/15 00:20:30;;;;;;;7.78;5.35;;;;;;;;;;7369794;19;20882;-74
2023/08/15 00:22:56;;;;;;;13.13;6.03;;;;;;;;;;7370667;19;20496;-74
2023/08/15 00:25:21;;;;;;;12.75;5.60;;;;;;;;;;7389564;19;20027;-74
2023/08/15 00:27:46;;;;;;;13.13;5.70;;;;;;;;;;7369736;19;20015;-75
2023/08/15 00:30:12;;;;;;;11.70;5.70;;;;;;;;;;7369252;19;20014;-73
2023/08/15 00:32:37;;;;;;;7.97;5.35;;;;;;;;;;7370373;19;20018;-73
2023/08/15 00:35:06;;;;;;;8.65;5.30;;;;;;;;;;7368438;19;20010;-74
2023/08/15 00:37:32;;;;;;;10.85;5.88;;;;;;;;;;7391697;19;20007;-74
2023/08/15 00:39:57;;;;;;;10.85;5.63;;;;;;;;;;7370767;19;20473;-72
2023/08/15 00:42:23;;;;;;;11.77;6.10;;;;;;;;;;7387079;19;20011;-72
2023/08/15 00:44:48;;;;;;;9.95;5.82;;;;;;;;;;7393528;19;20326;-73
2023/08/15 00:47:14;;;;;;;11.90;6.57;;;;;;;;;;7391180;19;20021;-73
2023/08/15 00:49:43;;;;;;;14.15;5.95;;;;;;;;;;7379144;19;19994;-73
2023/08/15 00:52:09;;;;;;;10.88;5.82;;;;;;;;;;7393890;19;20066;-73
2023/08/15 00:54:35;;;;;;;11.52;5.60;;;;;;;;;;7368096;19;20030;-73
2023/08/15 00:57:05;;;;;;;10.90;6.47;;;;;;;;;;7369753;19;20152;-74
2023/08/15 00:59:31;;;;;;;13.77;6.28;;;;;;;;;;7369287;19;20090;-74
2023/08/15 01:02:01;;;;;;;10.50;5.90;;;;;;;;;;7367152;19;20006;-73
2023/08/15 01:04:26;;;;;;;8.80;5.70;;;;;;;;;;7389173;19;20030;-72
2023/08/15 01:06:52;;;;;;;9.07;5.57;;;;;;;;;;7369387;19;20519;-73
2023/08/15 01:09:17;;;;;;;10.05;5.38;;;;;;;;;;7369725;19;20009;-73
2023/08/15 01:12:16;;;;;;;10.18;5.68;;;;;;;;;;7368853;19;20019;-72
2023/08/15 01:15:05;;;;;;;8.32;5.63;;;;;;;;;;7368157;19;19998;-73
2023/08/15 01:17:35;;;;;;;10.35;5.55;;;;;;;;;;7368077;19;20106;-74
2023/08/15 01:20:09;;;;;;;14.63;6.10;;;;;;;;;;7367896;19;20014;-72
2023/08/15 01:22:39;;;;;;;11.93;5.72;;;;;;;;;;7389933;19;20556;-73
2023/08/15 01:25:04;;;;;;;11.32;5.63;;;;;;;;;;7366646;19;20014;-73
2023/08/15 01:27:30;;;;;;;11.55;6.20;;;;;;;;;;7365429;19;20025;-74
2023/08/15 01:29:56;;;;;;;12.55;7.00;;;;;;;;;;7365096;19;20038;-73
2023/08/15 01:32:27;;;;;;;10.57;6.47;;;;;;;;;;7365529;19;20013;-73
2023/08/15 01:35:30;;;;;;;9.68;6.10;;;;;;;;;;7363721;19;20662;-73
2023/08/15 01:38:01;;;;;;;12.60;6.45;;;;;;;;;;7373163;19;20452;-73
2023/08/15 01:40:29;;;;;;;12.75;5.97;;;;;;;;;;7400729;19;20935;-73
2023/08/15 01:42:58;;;;;;;10.52;6.40;;;;;;;;;;7379179;19;20396;-73
2023/08/15 01:45:25;;;;;;;9.32;6.00;;;;;;;;;;7377556;19;20017;-73
2023/08/15 01:47:51;;;;;;;11.45;6.35;;;;;;;;;;7381942;19;20010;-73
2023/08/15 01:50:16;;;;;;;8.60;6.03;;;;;;;;;;7381697;19;20049;-73
2023/08/15 01:52:42;;;;;;;10.38;6.50;;;;;;;;;;7381799;19;20461;-73
2023/08/15 01:55:07;;;;;;;13.13;6.38;;;;;;;;;;7401270;19;20006;-73
2023/08/15 01:57:33;;;;;;;10.65;6.13;;;;;;;;;;7380991;19;20035;-74
2023/08/15 01:59:58;;;;;;;10.25;6.45;;;;;;;;;;7381438;19;20006;-73
2023/08/15 02:02:23;;;;;;;12.55;7.15;;;;;;;;;;7380395;19;20029;-73
2023/08/15 02:04:49;;;;;;;11.23;7.18;;;;;;;;;;7379020;19;20062;-73
2023/08/15 02:07:14;;;;;;;12.52;7.18;;;;;;;;;;7403875;19;20120;-74
2023/08/15 02:09:39;;;;;;;14.80;7.57;;;;;;;;;;7381952;19;20010;-74
2023/08/15 02:12:05;;;;;;;19.77;8.15;;;;;;;;;;7380524;19;20478;-73
2023/08/15 02:14:30;;;;;;;11.70;7.20;;;;;;;;;;7380990;19;20073;-73
2023/08/15 02:16:56;;;;;;;15.95;7.78;;;;;;;;;;7382253;19;20372;-74
2023/08/15 02:19:21;;;;;;;10.18;6.82;;;;;;;;;;7403150;19;20009;-73
2023/08/15 02:21:46;;;;;;;11.57;7.60;;;;;;;;;;7381232;19;20006;-73
2023/08/15 02:24:11;;;;;;;16.38;8.52;;;;;;;;;;7379463;19;20014;-73
2023/08/15 02:26:37;;;;;;;12.25;8.50;;;;;;;;;;7380517;19;20018;-74
2023/08/15 02:29:03;;;;;;;13.30;8.15;;;;;;;;;;7382100;19;20041;-74
2023/08/15 02:31:30;;;;;;;19.45;7.82;;;;;;;;;;7403628;19;20007;-74
2023/08/15 02:33:55;;;;;;;13.55;6.75;;;;;;;;;;7380159;19;20670;-73
2023/08/15 02:36:21;;;;;;;15.23;6.80;;;;;;;;;;7380899;19;20014;-74
2023/08/15 02:38:46;;;;;;;11.70;6.68;;;;;;;;;;7381528;19;20468;-74
2023/08/15 02:41:11;;;;;;;12.07;7.03;;;;;;;;;;7379680;19;20114;-73
2023/08/15 02:43:37;;;;;;;10.90;6.47;;;;;;;;;;7403308;19;20014;-73
2023/08/15 02:46:02;;;;;;;12.13;6.47;;;;;;;;;;7380454;19;20369;-73
2023/08/15 02:48:28;;;;;;;13.60;7.30;;;;;;;;;;7377486;19;20010;-74
2023/08/15 02:50:53;;;;;;;10.20;6.93;;;;;;;;;;7372086;19;20014;-73
2023/08/15 02:53:18;;;;;;;11.88;7.28;;;;;;;;;;7375683;19;20022;-73
2023/08/15 02:55:44;;;;;;;12.05;7.25;;;;;;;;;;7378129;19;20030;-73
2023/08/15 02:58:09;;;;;;;13.38;6.97;;;;;;;;;;7397918;19;20006;-72
2023/08/15 03:00:35;;;;;;;11.45;8.32;;;;;;;;;;7373030;19;20017;-73
2023/08/15 03:03:00;;;;;;;13.48;8.82;;;;;;;;;;7372098;19;20542;-72
2023/08/15 03:05:26;;;;;;;14.10;8.77;;;;;;;;;;7370867;19;20057;-72
2023/08/15 03:07:51;;;;;;;16.38;9.50;;;;;;;;;;7369520;19;20131;-72
2023/08/15 03:10:17;;;;;;;15.02;8.65;;;;;;;;;;7393779;19;20015;-71
2023/08/15 03:12:43;;;;;;;14.75;9.40;;;;;;;;;;7371907;19;20010;-71
2023/08/15 03:15:08;;;;;;;15.07;8.82;;;;;;;;;;7370789;19;20089;-72
2023/08/15 03:17:34;;;;;;;12.65;9.15;;;;;;;;;;7371747;19;20424;-71
2023/08/15 03:19:59;;;;;;;17.55;9.50;;;;;;;;;;7372110;19;20114;-71
2023/08/15 03:22:25;;;;;;;14.30;9.50;;;;;;;;;;7393823;19;20003;-74
2023/08/15 03:24:50;;;;;;;16.08;10.35;;;;;;;;;;7370721;19;20472;-74
2023/08/15 03:27:15;;;;;;;15.68;10.50;;;;;;;;;;7372280;19;20532;-75
2023/08/15 03:29:41;;;;;;;22.17;12.05;;;;;;;;;;7370532;19;20007;-74
2023/08/15 03:32:06;;;;;;;18.83;11.75;;;;;;;;;;7370558;19;20010;-73
2023/08/15 03:34:31;;;;;;;19.45;11.05;;;;;;;;;;7389644;19;20015;-73
2023/08/15 03:36:57;;;;;;;20.55;11.57;;;;;;;;;;7369602;19;20006;-75
2023/08/15 03:39:22;;;;;;;21.17;12.45;;;;;;;;;;7367542;19;20357;-74
2023/08/15 03:41:47;;;;;;;23.60;11.63;;;;;;;;;;7368519;19;20006;-74
2023/08/15 03:44:13;;;;;;;16.60;11.43;;;;;;;;;;7367348;19;20010;-73
2023/08/15 03:46:40;;;;;;;16.42;10.90;;;;;;;;;;7387976;19;20843;-73
2023/08/15 03:49:06;;;;;;;17.85;10.23;;;;;;;;;;7392472;19;20468;-73
2023/08/15 03:51:32;;;;;;;17.45;11.60;;;;;;;;;;7370523;19;20014;-73
2023/08/15 03:53:57;;;;;;;16.65;11.15;;;;;;;;;;7369321;19;20005;-72
2023/08/15 03:56:22;;;;;;;18.88;11.80;;;;;;;;;;7371435;19;20030;-73
2023/08/15 03:58:47;;;;;;;17.05;11.20;;;;;;;;;;7371128;19;20815;-73
2023/08/15 04:01:13;;;;;;;17.52;10.90;;;;;;;;;;7392089;19;20009;-74
2023/08/15 04:03:38;;;;;;;17.38;10.90;;;;;;;;;;7370380;19;20067;-73
2023/08/15 04:06:03;;;;;;;17.20;10.05;;;;;;;;;;7370486;19;20025;-74
2023/08/15 04:08:29;;;;;;;13.90;8.90;;;;;;;;;;7371077;19;20341;-73
2023/08/15 04:10:54;;;;;;;12.88;9.30;;;;;;;;;;7370598;19;20632;-74
2023/08/15 04:13:20;;;;;;;14.43;9.00;;;;;;;;;;7391755;19;20078;-74
2023/08/15 04:15:45;;;;;;;14.65;9.18;;;;;;;;;;7370582;19;20005;-74
2023/08/15 04:18:10;;;;;;;12.93;8.70;;;;;;;;;;7371156;19;20122;-73
2023/08/15 04:20:40;;;;;;;13.00;9.30;;;;;;;;;;7370453;19;20018;-74
2023/08/15 04:23:07;;;;;;;13.77;9.77;;;;;;;;;;7370409;19;20007;-73
2023/08/15 04:25:36;;;;;;;13.35;8.35;;;;;;;;;;7389559;19;20006;-73
2023/08/15 04:28:02;;;;;;;9.63;5.75;;;;;;;;;;7370153;19;20006;-73
2023/08/15 04:30:29;;;;;;;12.85;5.63;;;;;;;;;;7367173;19;20010;-72
2023/08/15 04:32:55;;;;;;;12.05;5.57;;;;;;;;;;7369232;19;20412;-73
2023/08/15 04:35:22;;;;;;;10.40;5.07;;;;;;;;;;7366636;19;20032;-73
2023/08/15 04:37:47;;;;;;;10.20;4.78;;;;;;;;;;7366196;19;20086;-72
2023/08/15 04:40:13;;;;;;;9.65;4.57;;;;;;;;;;7390574;19;19999;-72
2023/08/15 04:42:38;;;;;;;9.27;4.70;;;;;;;;;;7369073;19;20484;-73
2023/08/15 04:45:04;;;;;;;8.02;4.85;;;;;;;;;;7368444;19;20129;-72
2023/08/15 04:47:30;;;;;;;8.38;4.25;;;;;;;;;;7371653;19;20006;-72
2023/08/15 04:49:55;;;;;;;9.10;4.18;;;;;;;;;;7397070;19;20006;-72
2023/08/15 04:52:20;;;;;;;7.10;3.97;;;;;;;;;;7424180;19;20022;-72
2023/08/15 04:54:46;;;;;;;8.70;4.32;;;;;;;;;;7390017;19;20018;-73
2023/08/15 04:57:11;;;;;;;9.60;4.43;;;;;;;;;;7370542;19;20011;-72
2023/08/15 04:59:37;;;;;;;10.57;4.20;;;;;;;;;;7370372;19;20016;-73
2023/08/15 05:02:02;;;;;;;8.80;4.70;;;;;;;;;;7370209;19;20012;-72
2023/08/15 05:04:27;;;;;;;13.68;5.22;;;;;;;;;;7379859;19;20339;-72
2023/08/15 05:06:53;;;;;;;14.00;4.43;;;;;;;;;;7363870;19;20405;-73
2023/08/15 05:09:18;;;;;;;14.02;4.32;;;;;;;;;;7360436;19;20016;-73
2023/08/15 05:11:45;;;;;;;7.68;4.40;;;;;;;;;;7365969;19;20099;-72
2023/08/15 05:14:11;;;;;;;8.02;3.88;;;;;;;;;;7367483;19;20045;-73
2023/08/15 05:16:37;;;;;;;6.70;4.05;;;;;;;;;;7380781;19;20002;-71
2023/08/15 05:19:02;;;;;;;9.98;3.83;;;;;;;;;;7366733;19;20031;-72
2023/08/15 05:21:28;;;;;;;8.82;4.10;;;;;;;;;;7368377;19;20073;-71
2023/08/15 05:23:53;;;;;;;9.18;4.00;;;;;;;;;;7370153;19;20078;-71
2023/08/15 05:26:18;;;;;;;7.30;3.65;;;;;;;;;;7370055;19;20007;-73
2023/08/15 05:28:44;;;;;;;9.38;3.95;;;;;;;;;;7371573;19;20007;-72
2023/08/15 05:31:09;;;;;;;10.88;4.15;;;;;;;;;;7386070;19;20078;-71
2023/08/15 05:33:34;;;;;;;7.47;3.92;;;;;;;;;;7363054;19;20026;-72
2023/08/15 05:36:00;;;;;;;12.30;4.18;;;;;;;;;;7367670;19;20011;-72
2023/08/15 05:38:25;;;;;;;7.70;4.20;;;;;;;;;;7366210;19;20019;-72
2023/08/15 05:40:50;;;;;;;6.45;3.63;;;;;;;;;;7367535;19;20389;-73
2023/08/15 05:43:15;;;;;;;7.15;3.72;;;;;;;;;;7388750;19;20013;-72
2023/08/15 05:45:43;;;;;;;8.95;3.53;;;;;;;;;;7367653;19;20006;-72
2023/08/15 05:48:09;;;;;;;6.22;3.15;;;;;;;;;;7357657;19;20003;-72
2023/08/15 05:50:34;;;;;;;6.68;3.33;;;;;;;;;;7366199;19;20461;-72
2023/08/15 05:52:59;;;;;;;5.13;3.33;;;;;;;;;;7366205;19;20063;-73
2023/08/15 05:55:25;;;;;;;5.80;3.20;;;;;;;;;;7386108;19;20002;-72
2023/08/15 05:57:50;;;;;;;6.85;3.38;;;;;;;;;;7366923;19;20011;-72
2023/08/15 06:00:15;;;;;;;7.55;3.22;;;;;;;;;;7366273;19;20554;-71
2023/08/15 06:02:41;;;;;;;7.68;3.75;;;;;;;;;;7365722;19;20046;-72
2023/08/15 06:05:07;;;;;;;9.43;3.40;;;;;;;;;;7354047;19;20363;-71
2023/08/15 06:07:32;;;;;;;6.43;3.50;;;;;;;;;;7387515;19;20003;-72
2023/08/15 06:09:57;;;;;;;6.80;3.30;;;;;;;;;;7364973;19;20010;-72
2023/08/15 06:12:23;;;;;;;5.60;3.33;;;;;;;;;;7368963;19;20010;-72
2023/08/15 06:14:48;;;;;;;7.15;3.40;;;;;;;;;;7367660;19;20003;-71
2023/08/15 06:17:13;;;;;;;6.65;3.47;;;;;;;;;;7367300;19;20468;-71
2023/08/15 06:19:39;;;;;;;5.50;3.30;;;;;;;;;;7380416;19;20089;-71
2023/08/15 06:22:04;;;;;;;7.55;3.70;;;;;;;;;;7379195;19;20009;-72
2023/08/15 06:24:29;;;;;;;8.45;3.60;;;;;;;;;;7369478;19;20011;-72
2023/08/15 06:26:55;;;;;;;7.50;3.10;;;;;;;;;;7372886;19;20021;-72
2023/08/15 06:29:20;;;;;;;6.97;2.92;;;;;;;;;;7374304;19;20035;-71
2023/08/15 06:31:45;;;;;;;5.60;2.75;;;;;;;;;;7372517;19;19998;-71
2023/08/15 06:34:11;;;;;;;4.93;2.78;;;;;;;;;;7393140;19;20358;-70
2023/08/15 06:36:36;;;;;;;5.68;3.25;;;;;;;;;;7373464;19;20026;-71
2023/08/15 06:39:03;;;;;;;6.65;3.10;;;;;;;;;;7373743;19;20522;-71
2023/08/15 06:41:28;;;;;;;10.32;4.00;;;;;;;;;;7365282;19;20082;-72
2023/08/15 06:43:53;;;;;;;5.50;3.45;;;;;;;;;;7366965;19;20010;-71
2023/08/15 06:46:19;;;;;;;5.68;2.80;;;;;;;;;;7388870;19;20019;-71
2023/08/15 06:48:44;;;;;;;7.60;3.05;;;;;;;;;;7367677;19;20010;-71
2023/08/15 06:51:10;;;;;;;7.55;2.97;;;;;;;;;;7365905;19;20010;-72
2023/08/15 06:53:35;;;;;;;10.57;3.17;;;;;;;;;;7367880;19;20014;-71
2023/08/15 06:56:01;;;;;;;6.25;2.90;;;;;;;;;;7371955;19;20485;-70
2023/08/15 06:58:26;;;;;;;7.65;2.95;;;;;;;;;;7393755;19;20006;-70
2023/08/15 07:00:52;;;;;;;6.85;3.20;;;;;;;;;;7369404;19;20036;-71
2023/08/15 07:03:18;;;;;;;6.35;2.83;;;;;;;;;;7369948;19;20400;-71
2023/08/15 07:05:44;;;;;;;5.50;2.83;;;;;;;;;;7368038;19;20030;-71
2023/08/15 07:08:10;;;;;;;8.60;3.22;;;;;;;;;;7369218;19;20081;-71
2023/08/15 07:10:36;;;;;;;6.40;3.13;;;;;;;;;;7390112;19;20006;-71
2023/08/15 07:13:02;;;;;;;5.65;2.60;;;;;;;;;;7369871;19;20005;-72
2023/08/15 07:15:28;;;;;;;6.15;3.25;;;;;;;;;;7368438;19;20002;-70
2023/08/15 07:17:53;;;;;;;5.30;3.13;;;;;;;;;;7368481;19;20527;-70
2023/08/15 07:20:19;;;;;;;6.65;2.83;;;;;;;;;;7368352;19;20408;-71
2023/08/15 07:22:45;;;;;;;7.10;2.78;;;;;;;;;;7368218;19;20033;-72
2023/08/15 07:25:11;;;;;;;4.93;2.78;;;;;;;;;;7388630;19;20365;-72
2023/08/15 07:27:37;;;;;;;5.72;2.35;;;;;;;;;;7368093;19;20015;-72
2023/08/15 07:30:04;;;;;;;4.53;2.30;;;;;;;;;;7368939;19;20798;-71
2023/08/15 07:32:29;;;;;;;5.68;2.35;;;;;;;;;;7369986;19;20109;-71
2023/08/15 07:34:55;;;;;;;4.20;2.67;;;;;;;;;;7365922;19;20003;-70
2023/08/15 07:37:20;;;;;;;4.88;2.50;;;;;;;;;;7391068;19;20018;-69
2023/08/15 07:39:45;;;;;;;7.28;2.75;;;;;;;;;;7364806;19;21006;-71
2023/08/15 07:42:11;;;;;;;6.10;2.30;;;;;;;;;;7368903;19;20035;-72
2023/08/15 07:44:37;;;;;;;5.15;2.53;;;;;;;;;;7366955;19;20101;-71
2023/08/15 07:47:02;;;;;;;5.18;2.28;;;;;;;;;;7369476;19;20018;-71
2023/08/15 07:49:30;;;;;;;5.05;2.70;;;;;;;;;;7388606;19;20077;-72
2023/08/15 07:51:56;;;;;;;5.28;2.63;;;;;;;;;;7366048;19;20003;-72
2023/08/15 07:54:21;;;;;;;7.25;2.60;;;;;;;;;;7366092;19;20010;-72
2023/08/15 07:56:46;;;;;;;5.30;2.47;;;;;;;;;;7367459;19;20018;-72
2023/08/15 07:59:12;;;;;;;7.00;2.40;;;;;;;;;;7367100;19;20017;-71
2023/08/15 08:01:37;;;;;;;6.97;2.90;;;;;;;;;;7388145;19;20027;-70
2023/08/15 08:04:03;;;;;;;7.68;2.60;;;;;;;;;;7366786;19;20007;-71
2023/08/15 08:06:28;;;;;;;6.03;2.22;;;;;;;;;;7366794;19;20010;-71
2023/08/15 08:08:53;;;;;;;3.92;2.30;;;;;;;;;;7366132;19;20029;-70
2023/08/15 08:11:19;;;;;;;4.00;1.98;;;;;;;;;;7359436;19;20007;-73
2023/08/15 08:13:44;;;;;;;2.80;1.80;;;;;;;;;;7361031;19;20448;-72
2023/08/15 08:16:09;;;;;;;6.20;2.20;;;;;;;;;;7388406;19;20390;-73
2023/08/15 08:18:35;;;;;;;4.03;1.90;;;;;;;;;;7366610;19;20271;-73
2023/08/15 08:21:00;;;;;;;3.57;1.93;;;;;;;;;;7365076;19;20306;-72
2023/08/15 08:23:26;;;;;;;5.82;2.20;;;;;;;;;;7368763;19;21161;-72
2023/08/15 08:25:51;;;;;;;6.60;2.42;;;;;;;;;;7367239;19;20019;-72
2023/08/15 08:28:17;;;;;;;5.32;2.50;;;;;;;;;;7389668;19;19999;-72
2023/08/15 08:30:43;;;;;;;7.30;2.70;;;;;;;;;;7365503;19;20006;-72
2023/08/15 08:33:09;;;;;;;7.55;2.40;;;;;;;;;;7367874;19;19998;-73
2023/08/15 08:35:35;;;;;;;7.75;2.65;;;;;;;;;;7363581;19;20337;-72
2023/08/15 08:38:00;;;;;;;5.63;2.30;;;;;;;;;;7366610;19;20496;-73
2023/08/15 08:40:27;;;;;;;6.72;2.33;;;;;;;;;;7385457;19;20026;-72
2023/08/15 08:42:53;;;;;;;6.68;2.10;;;;;;;;;;7366886;19;20528;-73
2023/08/15 08:45:24;;;;;;;8.38;2.30;;;;;;;;;;7365937;19;19999;-73
2023/08/15 08:47:49;;;;;;;5.15;1.80;;;;;;;;;;7364426;19;20003;-72
2023/08/15 08:50:15;;;;;;;4.53;1.98;;;;;;;;;;7366788;19;20043;-72
2023/08/15 08:52:42;;;;;;;6.82;1.95;;;;;;;;;;7368041;19;20099;-71
2023/08/15 08:55:11;;;;;;;9.30;2.22;;;;;;;;;;7389312;19;20140;-67
2023/08/15 08:57:37;;;;;;;4.83;2.27;;;;;;;;;;7384047;19;20036;-68
2023/08/15 09:00:07;;;;;;;4.57;1.90;;;;;;;;;;7399007;19;20003;-72
2023/08/15 09:02:33;;;;;;;4.38;2.13;;;;;;;;;;7396733;19;20013;-74
2023/08/15 09:04:58;;;;;;;5.55;1.70;;;;;;;;;;7368406;19;20015;-73
2023/08/15 09:07:24;;;;;;;5.97;2.20;;;;;;;;;;7389503;19;20022;-73
2023/08/15 09:09:49;;;;;;;3.95;1.73;;;;;;;;;;7365247;19;20260;-73
2023/08/15 09:12:35;;;;;;;3.88;1.85;;;;;;;;;;7366933;19;20069;-72
2023/08/15 09:15:00;;;;;;;3.80;1.90;;;;;;;;;;7364302;19;20417;-72
2023/08/15 09:17:26;;;;;;;7.20;2.08;;;;;;;;;;7365745;19;20014;-73
2023/08/15 09:19:52;;;;;;;3.67;1.80;;;;;;;;;;7363614;19;21741;-72
2023/08/15 09:22:24;;;;;;;7.90;2.45;;;;;;;;;;7387014;19;20003;-72
2023/08/15 09:24:50;;;;;;;2.70;1.73;;;;;;;;;;7363320;19;19998;-73
2023/08/15 09:27:17;;;;;;;3.42;1.90;;;;;;;;;;7365725;19;20086;-72
2023/08/15 09:29:42;;;;;;;5.47;2.10;;;;;;;;;;7366083;19;20074;-73
2023/08/15 09:32:08;;;;;;;2.60;1.80;;;;;;;;;;7363867;19;20014;-73
2023/08/15 09:34:34;;;;;;;3.97;2.10;;;;;;;;;;7385327;19;20002;-73
2023/08/15 09:36:59;;;;;;;2.23;1.53;;;;;;;;;;7366385;19;20046;-74
2023/08/15 09:39:25;;;;;;;3.22;1.77;;;;;;;;;;7365402;19;20327;-73
2023/08/15 09:41:52;;;;;;;2.47;1.80;;;;;;;;;;7367560;19;20010;-72
2023/08/15 09:44:34;;;;;;;3.22;1.60;;;;;;;;;;7368180;19;20039;-73
2023/08/15 09:47:00;;;;;;;5.47;2.10;;;;;;;;;;7363959;19;20406;-73
2023/08/15 09:49:28;;;;;;;3.53;1.80;;;;;;;;;;7386892;19;20473;-72
2023/08/15 09:51:53;;;;;;;2.53;1.85;;;;;;;;;;7363004;19;20003;-72
2023/08/15 09:54:20;;;;;;;3.00;1.95;;;;;;;;;;7365400;19;20496;-72
2023/08/15 09:56:46;;;;;;;4.28;1.77;;;;;;;;;;7363160;19;19999;-72
2023/08/15 09:59:12;;;;;;;2.90;1.70;;;;;;;;;;7368877;19;20047;-72
2023/08/15 10:01:39;;;;;;;3.65;1.80;;;;;;;;;;7391635;19;20040;-72
2023/08/15 10:04:10;;;;;;;3.67;1.90;;;;;;;;;;7371623;19;20061;-72
2023/08/15 10:06:36;;;;;;;5.22;2.03;;;;;;;;;;7370853;19;20005;-72
2023/08/15 10:09:03;;;;;;;4.03;1.80;;;;;;;;;;7370917;19;20011;-72
2023/08/15 10:11:33;;;;;;;4.97;2.00;;;;;;;;;;7369913;19;20010;-72
2023/08/15 10:14:00;;;;;;;5.15;2.15;;;;;;;;;;7367422;19;20577;-72
2023/08/15 10:16:26;;;;;;;2.75;1.98;;;;;;;;;;7390895;19;20010;-72
2023/08/15 10:18:57;;;;;;;4.28;2.15;;;;;;;;;;7367360;19;20092;-72
2023/08/15 10:21:23;;;;;;;3.72;1.80;;;;;;;;;;7368746;19;20018;-72
2023/08/15 10:23:51;;;;;;;2.92;2.05;;;;;;;;;;7366846;19;20035;-72
2023/08/15 10:26:17;;;;;;;3.13;1.90;;;;;;;;;;7367704;19;20074;-72
2023/08/15 10:28:45;;;;;;;3.60;1.92;;;;;;;;;;7370593;19;20003;-73
2023/08/15 10:31:11;;;;;;;2.30;1.52;;;;;;;;;;7391164;19;20007;-73
2023/08/15 10:33:37;;;;;;;4.70;2.10;;;;;;;;;;7370347;19;20023;-73
2023/08/15 10:36:02;;;;;;;3.72;1.83;;;;;;;;;;7370754;19;20006;-74
2023/08/15 10:38:35;;;;;;;8.37;2.13;;;;;;;;;;7369290;19;20117;-71
2023/08/15 10:41:06;;;;;;;4.45;2.35;;;;;;;;;;7369476;19;20527;-73
2023/08/15 10:43:33;;;;;;;9.63;3.10;;;;;;;;;;7393897;19;20017;-68
2023/08/15 10:46:06;;;;;;;11.93;3.25;;;;;;;;;;7371814;19;20003;-69
2023/08/15 10:48:49;;;;;;;8.73;3.20;;;;;;;;;;7370943;19;20033;-68
2023/08/15 10:51:18;;;;;;;8.30;3.50;;;;;;;;;;7370253;19;20007;-69
2023/08/15 10:53:47;;;;;;;7.95;4.00;;;;;;;;;;7370769;19;20777;-70
2023/08/15 10:56:16;;;;;;;7.63;3.88;;;;;;;;;;7372324;19;20002;-69
2023/08/15 10:58:41;;;;;;;7.78;4.30;;;;;;;;;;7373081;19;20002;-69
2023/08/15 11:01:07;;;;;;;10.15;3.70;;;;;;;;;;7392952;19;19995;-68
2023/08/15 11:03:33;;;;;;;5.15;3.35;;;;;;;;;;7372039;19;20468;-68
2023/08/15 11:06:12;;;;;;;10.63;4.13;;;;;;;;;;7371966;19;20002;-68
2023/08/15 11:08:44;;;;;;;6.97;3.78;;;;;;;;;;7372563;19;20014;-69
2023/08/15 11:11:10;;;;;;;8.55;4.55;;;;;;;;;;7370275;19;20504;-68
2023/08/15 11:13:40;;;;;;;7.28;4.25;;;;;;;;;;7393571;19;20070;-68
2023/08/15 11:16:07;;;;;;;8.98;4.43;;;;;;;;;;7371076;19;20002;-68
2023/08/15 11:18:32;;;;;;;10.07;4.10;;;;;;;;;;7371961;19;20003;-68
2023/08/15 11:20:58;;;;;;;7.68;3.90;;;;;;;;;;7373005;19;20007;-68
2023/08/15 11:23:27;;;;;;;11.45;4.57;;;;;;;;;;7372300;19;20062;-69
2023/08/15 11:25:52;;;;;;;8.93;4.03;;;;;;;;;;7370552;19;20002;-69
2023/08/15 11:28:17;;;;;;;9.40;4.10;;;;;;;;;;7394145;19;20070;-68
2023/08/15 11:30:43;;;;;;;8.20;4.45;;;;;;;;;;7356575;19;20026;-68
2023/08/15 11:33:09;;;;;;;8.48;4.18;;;;;;;;;;7358448;19;20052;-68
2023/08/15 11:35:35;;;;;;;9.73;4.07;;;;;;;;;;7364923;19;20035;-69
2023/08/15 11:38:00;;;;;;;6.97;3.50;;;;;;;;;;7366235;19;20564;-68
2023/08/15 11:40:26;;;;;;;10.50;3.90;;;;;;;;;;7388917;19;20375;-68
2023/08/15 11:42:53;;;;;;;8.50;3.75;;;;;;;;;;7360956;19;20014;-69
2023/08/15 11:45:21;;;;;;;6.95;4.07;;;;;;;;;;7365153;19;20011;-68
2023/08/15 11:48:00;;;;;;;7.25;3.88;;;;;;;;;;7363871;19;20002;-68
2023/08/15 11:50:31;;;;;;;7.07;4.00;;;;;;;;;;7368629;19;20015;-69
2023/08/15 11:52:56;;;;;;;6.20;3.70;;;;;;;;;;7367374;19;20010;-68
2023/08/15 11:55:23;;;;;;;7.32;4.00;;;;;;;;;;7387914;19;20002;-69
2023/08/15 11:57:50;;;;;;;9.50;4.00;;;;;;;;;;7365514;19;20006;-68
2023/08/15 12:00:20;;;;;;;6.88;4.10;;;;;;;;;;7367292;19;20006;-69
2023/08/15 12:02:47;;;;;;;7.78;4.07;;;;;;;;;;7365109;19;20010;-69
2023/08/15 12:05:15;;;;;;;8.55;3.85;;;;;;;;;;7366228;19;20009;-69
2023/08/15 12:07:41;;;;;;;10.70;4.47;;;;;;;;;;7367913;19;20014;-68
2023/08/15 12:10:07;;;;;;;8.25;4.03;;;;;;;;;;7387330;19;20006;-68
2023/08/15 12:12:37;;;;;;;10.15;4.25;;;;;;;;;;7368463;19;20019;-68
2023/08/15 12:15:05;;;;;;;7.17;4.33;;;;;;;;;;7367579;19;20131;-68
2023/08/15 12:17:31;;;;;;;8.32;3.92;;;;;;;;;;7367700;19;20014;-72
2023/08/15 12:19:56;;;;;;;10.77;4.55;;;;;;;;;;7364681;19;20142;-68
2023/08/15 12:22:22;;;;;;;7.57;3.95;;;;;;;;;;7388717;19;20474;-68
2023/08/15 12:24:47;;;;;;;6.68;3.60;;;;;;;;;;7336423;19;20081;-68
2023/08/15 12:27:13;;;;;;;6.45;4.20;;;;;;;;;;7358783;19;20081;-68
2023/08/15 12:29:38;;;;;;;9.23;4.22;;;;;;;;;;7366668;19;20010;-67
2023/08/15 12:32:04;;;;;;;7.63;4.53;;;;;;;;;;7364557;19;20031;-68
2023/08/15 12:34:29;;;;;;;9.60;4.35;;;;;;;;;;7373137;19;20505;-68
2023/08/15 12:36:54;;;;;;;8.82;4.05;;;;;;;;;;7366311;19;20006;-68
2023/08/15 12:39:20;;;;;;;10.30;4.80;;;;;;;;;;7366742;19;20078;-68
2023/08/15 12:41:45;;;;;;;7.38;4.00;;;;;;;;;;7366386;19;20010;-67
2023/08/15 12:44:10;;;;;;;13.35;4.68;;;;;;;;;;7367030;19;20007;-67
2023/08/15 12:46:36;;;;;;;8.52;4.53;;;;;;;;;;7389110;19;20011;-67
2023/08/15 12:49:02;;;;;;;11.38;4.82;;;;;;;;;;7365727;19;20017;-67
2023/08/15 12:51:27;;;;;;;9.73;5.00;;;;;;;;;;7364750;19;20070;-67
2023/08/15 12:53:53;;;;;;;11.45;4.60;;;;;;;;;;7363102;19;20063;-68
2023/08/15 12:56:18;;;;;;;9.68;5.22;;;;;;;;;;7365275;19;20019;-68
2023/08/15 12:58:44;;;;;;;8.57;4.63;;;;;;;;;;7366829;19;20010;-68
2023/08/15 13:01:09;;;;;;;10.52;4.78;;;;;;;;;;7386764;19;20015;-68
2023/08/15 13:03:35;;;;;;;10.35;4.88;;;;;;;;;;7366477;19;20017;-68
2023/08/15 13:06:00;;;;;;;9.00;4.85;;;;;;;;;;7364193;19;20006;-68
2023/08/15 13:08:25;;;;;;;11.93;5.00;;;;;;;;;;7366838;19;20365;-69
2023/08/15 13:10:51;;;;;;;14.65;5.32;;;;;;;;;;7366148;19;20465;-68
2023/08/15 13:13:16;;;;;;;10.98;5.13;;;;;;;;;;7389443;19;20017;-70
2023/08/15 13:15:41;;;;;;;13.18;5.65;;;;;;;;;;7369202;19;20007;-68
2023/08/15 13:18:07;;;;;;;8.50;4.95;;;;;;;;;;7369365;19;20006;-69
2023/08/15 13:20:32;;;;;;;13.55;5.80;;;;;;;;;;7370039;19;20118;-68
2023/08/15 13:22:58;;;;;;;10.85;5.55;;;;;;;;;;7369678;19;20011;-69
2023/08/15 13:25:23;;;;;;;8.77;4.82;;;;;;;;;;7389129;19;20036;-68
2023/08/15 13:27:49;;;;;;;11.57;5.20;;;;;;;;;;7368402;19;20483;-69
2023/08/15 13:30:14;;;;;;;12.98;5.63;;;;;;;;;;7369935;19;20006;-68
2023/08/15 13:32:39;;;;;;;11.25;5.88;;;;;;;;;;7368115;19;20011;-69
2023/08/15 13:35:05;;;;;;;9.55;4.95;;;;;;;;;;7366121;19;20007;-68
2023/08/15 13:37:30;;;;;;;7.28;4.53;;;;;;;;;;7390408;19;19998;-68
2023/08/15 13:39:57;;;;;;;12.88;4.82;;;;;;;;;;7367324;19;20043;-68
2023/08/15 13:42:22;;;;;;;10.05;5.10;;;;;;;;;;7368275;19;20007;-68
2023/08/15 13:44:48;;;;;;;9.45;3.97;;;;;;;;;;7367929;19;20010;-68
2023/08/15 13:47:13;;;;;;;9.35;4.93;;;;;;;;;;7368139;19;20369;-68
2023/08/15 13:49:38;;;;;;;9.45;4.55;;;;;;;;;;7385511;19;20002;-69
2023/08/15 13:52:04;;;;;;;9.80;4.80;;;;;;;;;;7373410;19;20326;-68
2023/08/15 13:54:29;;;;;;;7.43;4.45;;;;;;;;;;7363921;19;20018;-68
2023/08/15 13:56:54;;;;;;;9.77;4.53;;;;;;;;;;7367331;19;20017;-68
2023/08/15 13:59:20;;;;;;;9.32;4.90;;;;;;;;;;7367967;19;20018;-66
2023/08/15 14:01:45;;;;;;;9.68;4.53;;;;;;;;;;7366533;19;20003;-66
2023/08/15 14:04:10;;;;;;;8.60;4.40;;;;;;;;;;7388314;19;20010;-67
2023/08/15 14:06:36;;;;;;;8.38;4.53;;;;;;;;;;7366899;19;20461;-68
2023/08/15 14:09:01;;;;;;;8.13;4.70;;;;;;;;;;7366989;19;20717;-68
2023/08/15 14:11:26;;;;;;;12.15;4.88;;;;;;;;;;7365908;19;20086;-67
2023/08/15 14:13:52;;;;;;;12.27;4.32;;;;;;;;;;7365094;19;19995;-69
2023/08/15 14:16:17;;;;;;;12.38;4.80;;;;;;;;;;7388945;19;20479;-69
2023/08/15 14:18:43;;;;;;;10.30;4.50;;;;;;;;;;7365037;19;20010;-68
2023/08/15 14:21:10;;;;;;;9.57;4.10;;;;;;;;;;7365667;19;20007;-66
2023/08/15 14:23:35;;;;;;;7.22;3.75;;;;;;;;;;7366540;19;20013;-68
2023/08/15 14:26:00;;;;;;;7.72;4.10;;;;;;;;;;7365274;19;20006;-66
2023/08/15 14:28:26;;;;;;;8.57;3.80;;;;;;;;;;7387198;19;20005;-67
2023/08/15 14:30:51;;;;;;;11.20;3.78;;;;;;;;;;7365570;19;20337;-67
2023/08/15 14:33:16;;;;;;;8.23;3.22;;;;;;;;;;7366836;19;20040;-67